createdAt,value
2022-08-26T00:01:19.478Z,93.29
2022-08-26T00:04:12.017Z,93.40
2022-08-26T00:06:55.044Z,93.56
2022-08-26T00:09:40.166Z,93.84
2022-08-26T00:12:22.169Z,93.89
2022-08-26T00:15:20.453Z,93.94
2022-08-26T00:18:02.755Z,94.21
2022-08-26T00:20:45.470Z,94.24
2022-08-26T00:23:28.853Z,93.98
2022-08-26T00:26:11.125Z,94.59
2022-08-26T00:28:53.225Z,94.45
2022-08-26T00:31:35.178Z,94.54
2022-08-26T00:34:19.367Z,94.89
2022-08-26T00:37:01.764Z,95.30
2022-08-26T00:39:44.270Z,95.45
2022-08-26T00:42:28.008Z,96.78
2022-08-26T00:45:11.754Z,96.25
2022-08-26T00:48:01.425Z,96.20
2022-08-26T00:50:54.893Z,97.39
2022-08-26T00:53:42.230Z,97.42
2022-08-26T00:56:54.116Z,96.98
2022-08-26T00:59:36.535Z,97.13
2022-08-26T01:02:21.794Z,96.71
2022-08-26T01:05:05.025Z,96.87
2022-08-26T01:07:47.740Z,96.79
2022-08-26T01:10:32.093Z,96.81
2022-08-26T01:13:14.603Z,96.95
2022-08-26T01:16:00.397Z,96.90
2022-08-26T01:18:45.050Z,97.44
2022-08-26T01:21:29.444Z,97.17
2022-08-26T01:24:12.427Z,97.05
2022-08-26T01:27:02.710Z,97.88
2022-08-26T01:29:47.379Z,97.73
2022-08-26T01:32:33.483Z,97.92
2022-08-26T01:35:15.881Z,98.22
2022-08-26T01:37:58.495Z,98.41
2022-08-26T01:40:43.769Z,98.61
2022-08-26T01:43:27.942Z,98.17
2022-08-26T01:46:12.232Z,99.50
2022-08-26T01:48:57.445Z,99.68
2022-08-26T01:51:41.333Z,99.14
2022-08-26T01:54:25.125Z,99.62
2022-08-26T01:57:08.250Z,99.81
2022-08-26T01:59:51.735Z,99.90
2022-08-26T02:02:33.782Z,99.93
2022-08-26T02:05:20.336Z,99.92
2022-08-26T02:08:03.535Z,100.00
2022-08-26T02:10:46.024Z,100.00
2022-08-26T02:13:31.509Z,100.00
2022-08-26T02:16:17.960Z,100.00
2022-08-26T02:19:01.712Z,100.00
2022-08-26T02:21:51.971Z,100.00
2022-08-26T02:24:56.155Z,100.00
2022-08-26T02:27:38.155Z,100.00
2022-08-26T02:30:25.396Z,100.00
2022-08-26T02:33:08.237Z,100.00
2022-08-26T02:35:50.394Z,100.00
2022-08-26T02:38:33.007Z,100.00
2022-08-26T02:41:15.568Z,100.00
2022-08-26T02:44:00.589Z,100.00
2022-08-26T02:46:46.941Z,100.00
2022-08-26T02:49:30.727Z,100.00
2022-08-26T02:52:12.828Z,100.00
2022-08-26T02:54:55.266Z,100.00
2022-08-26T02:57:37.852Z,100.00
2022-08-26T03:00:20.304Z,100.00
2022-08-26T03:03:02.459Z,100.00
2022-08-26T03:05:44.724Z,100.00
2022-08-26T03:08:27.019Z,100.00
2022-08-26T03:11:09.480Z,100.00
2022-08-26T03:13:54.141Z,100.00
2022-08-26T03:16:37.981Z,100.00
2022-08-26T03:19:21.513Z,100.00
2022-08-26T03:22:05.047Z,100.00
2022-08-26T03:24:46.943Z,100.00
2022-08-26T03:27:28.839Z,100.00
2022-08-26T03:30:35.112Z,100.00
2022-08-26T03:33:17.412Z,100.00
2022-08-26T03:36:00.776Z,100.00
2022-08-26T03:38:43.661Z,100.00
2022-08-26T03:41:27.503Z,100.00
2022-08-26T03:44:09.501Z,100.00
2022-08-26T03:46:54.242Z,100.00
2022-08-26T03:49:37.559Z,100.00
2022-08-26T03:52:19.591Z,100.00
2022-08-26T03:55:01.589Z,100.00
2022-08-26T03:57:45.122Z,100.00
2022-08-26T04:00:27.031Z,100.00
2022-08-26T04:03:14.657Z,100.00
2022-08-26T04:06:00.131Z,100.00
2022-08-26T04:08:42.127Z,100.00
2022-08-26T04:11:28.649Z,100.00
2022-08-26T04:14:17.619Z,100.00
2022-08-26T04:17:05.119Z,100.00
2022-08-26T04:19:47.937Z,100.00
2022-08-26T04:22:29.835Z,100.00
2022-08-26T04:25:12.753Z,100.00
2022-08-26T04:27:55.180Z,100.00
2022-08-26T04:30:38.185Z,100.00
2022-08-26T04:33:32.521Z,100.00
2022-08-26T04:36:15.130Z,100.00
2022-08-26T04:38:57.797Z,100.00
2022-08-26T04:41:40.075Z,100.00
2022-08-26T04:44:27.688Z,100.00
2022-08-26T04:47:09.627Z,100.00
2022-08-26T04:49:57.875Z,100.00
2022-08-26T04:52:39.870Z,100.00
2022-08-26T04:55:25.330Z,100.00
2022-08-26T04:58:23.630Z,100.00
2022-08-26T05:01:06.044Z,100.00
2022-08-26T05:03:49.022Z,100.00
2022-08-26T05:06:30.955Z,100.00
2022-08-26T05:09:19.304Z,100.00
2022-08-26T05:12:01.300Z,100.00
2022-08-26T05:14:43.196Z,100.00
2022-08-26T05:17:27.371Z,100.00
2022-08-26T05:20:09.754Z,100.00
2022-08-26T05:22:52.775Z,100.00
2022-08-26T05:25:41.981Z,100.00
2022-08-26T05:28:23.882Z,100.00
2022-08-26T05:31:17.713Z,100.00
2022-08-26T05:34:03.649Z,100.00
2022-08-26T05:36:46.318Z,100.00
2022-08-26T05:39:28.213Z,100.00
2022-08-26T05:42:10.519Z,100.00
2022-08-26T05:44:55.783Z,100.00
2022-08-26T05:47:38.201Z,100.00
2022-08-26T05:50:23.319Z,100.00
2022-08-26T05:53:07.677Z,100.00
2022-08-26T05:55:52.797Z,99.65
2022-08-26T05:58:36.881Z,98.61
2022-08-26T06:01:21.947Z,98.41
2022-08-26T06:04:06.267Z,97.43
2022-08-26T06:06:48.578Z,97.11
2022-08-26T06:09:30.979Z,96.84
2022-08-26T06:12:13.183Z,96.89
2022-08-26T06:14:57.843Z,97.79
2022-08-26T06:17:39.818Z,97.25
2022-08-26T06:20:21.841Z,96.29
2022-08-26T06:23:23.089Z,96.47
2022-08-26T06:26:06.111Z,96.00
2022-08-26T06:28:48.007Z,92.75
2022-08-26T06:31:33.644Z,92.74
2022-08-26T06:34:20.197Z,91.14
2022-08-26T06:37:03.633Z,89.54
2022-08-26T06:39:46.342Z,88.29
2022-08-26T06:42:28.134Z,88.13
2022-08-26T06:45:10.691Z,87.73
2022-08-26T06:47:53.155Z,86.37
2022-08-26T06:50:35.397Z,85.20
2022-08-26T06:53:17.560Z,83.76
2022-08-26T06:56:04.988Z,84.21
2022-08-26T06:58:47.541Z,83.30
2022-08-26T07:01:33.805Z,82.01
2022-08-26T07:04:20.253Z,82.23
2022-08-26T07:07:04.551Z,80.12
2022-08-26T07:09:47.059Z,80.03
2022-08-26T07:12:32.334Z,80.01
2022-08-26T07:15:15.356Z,78.00
2022-08-26T07:17:57.662Z,74.63
2022-08-26T07:20:40.786Z,74.30
2022-08-26T07:23:24.944Z,73.32
2022-08-26T07:26:10.927Z,73.76
2022-08-26T07:28:57.533Z,73.42
2022-08-26T07:31:42.383Z,72.77
2022-08-26T07:34:25.263Z,71.22
2022-08-26T07:37:08.914Z,71.46
2022-08-26T07:39:51.688Z,69.42
2022-08-26T07:42:34.694Z,70.26
2022-08-26T07:45:17.511Z,69.89
2022-08-26T07:47:59.757Z,70.13
2022-08-26T07:50:50.116Z,68.00
2022-08-26T07:53:34.870Z,68.28
2022-08-26T07:56:16.871Z,68.64
2022-08-26T07:58:59.071Z,67.17
2022-08-26T08:01:41.459Z,65.66
2022-08-26T08:04:27.983Z,64.37
2022-08-26T08:07:11.545Z,65.10
2022-08-26T08:09:54.846Z,64.92
2022-08-26T08:12:38.735Z,65.02
2022-08-26T08:15:25.200Z,64.03
2022-08-26T08:18:07.223Z,62.14
2022-08-26T08:21:10.784Z,60.07
2022-08-26T08:24:00.779Z,61.00
2022-08-26T08:26:42.676Z,61.00
2022-08-26T08:29:25.087Z,60.23
2022-08-26T08:32:11.631Z,59.01
2022-08-26T08:34:57.887Z,57.73
2022-08-26T08:37:41.318Z,57.70
2022-08-26T08:40:26.472Z,58.14
2022-08-26T08:43:38.661Z,57.40
2022-08-26T08:46:20.723Z,56.62
2022-08-26T08:49:04.442Z,56.71
2022-08-26T08:52:02.443Z,57.07
2022-08-26T08:54:46.145Z,56.15
2022-08-26T08:57:55.779Z,55.40
2022-08-26T09:01:14.264Z,55.10
2022-08-26T09:04:02.292Z,53.44
2022-08-26T09:06:50.431Z,52.22
2022-08-26T09:09:47.589Z,54.05
2022-08-26T09:12:36.656Z,53.71
2022-08-26T09:15:35.925Z,53.77
2022-08-26T09:18:53.279Z,51.29
2022-08-26T09:21:37.930Z,50.75
2022-08-26T09:24:24.406Z,51.31
2022-08-26T09:27:41.459Z,50.08
2022-08-26T09:30:36.218Z,49.78
2022-08-26T09:33:31.849Z,49.64
2022-08-26T09:36:37.775Z,48.34
2022-08-26T09:39:29.459Z,48.27
2022-08-26T09:42:16.938Z,48.73
2022-08-26T09:45:04.404Z,43.68
2022-08-26T09:47:57.566Z,44.03
2022-08-26T09:51:24.112Z,42.19
2022-08-26T09:54:08.080Z,40.20
2022-08-26T09:56:50.259Z,38.68
2022-08-26T09:59:32.359Z,39.37
2022-08-26T10:02:30.231Z,38.41
2022-08-26T10:05:20.057Z,38.05
2022-08-26T10:08:42.457Z,36.80
2022-08-26T10:11:48.214Z,37.52
2022-08-26T10:14:49.771Z,37.20
2022-08-26T10:17:42.984Z,36.76
2022-08-26T10:20:37.348Z,36.85
2022-08-26T10:23:24.993Z,35.78
2022-08-26T10:26:16.059Z,36.42
2022-08-26T10:29:09.322Z,35.66
2022-08-26T10:32:02.511Z,35.61
2022-08-26T10:34:45.708Z,34.86
2022-08-26T10:37:37.742Z,33.76
2022-08-26T10:40:28.183Z,34.40
2022-08-26T10:43:17.717Z,33.39
2022-08-26T10:46:06.872Z,32.90
2022-08-26T10:48:56.454Z,32.33
2022-08-26T10:51:56.008Z,33.51
2022-08-26T10:54:39.804Z,33.80
2022-08-26T10:57:43.512Z,34.46
2022-08-26T11:00:55.443Z,33.93
2022-08-26T11:03:54.514Z,33.29
2022-08-26T11:06:40.604Z,33.86
2022-08-26T11:09:45.485Z,33.94
2022-08-26T11:12:37.198Z,33.41
2022-08-26T11:15:27.048Z,33.71
2022-08-26T11:18:12.293Z,33.66
2022-08-26T11:20:54.116Z,34.67
2022-08-26T11:23:50.465Z,33.44
2022-08-26T11:26:56.041Z,34.87
2022-08-26T11:30:02.271Z,34.75
2022-08-26T11:32:59.842Z,34.77
2022-08-26T11:35:46.068Z,35.06
2022-08-26T11:38:30.920Z,35.40
2022-08-26T11:41:21.185Z,36.36
2022-08-26T11:44:07.690Z,33.88
2022-08-26T11:46:59.980Z,33.41
2022-08-26T11:49:41.922Z,32.99
2022-08-26T11:52:25.256Z,33.66
2022-08-26T11:55:12.345Z,32.84
2022-08-26T11:58:00.962Z,33.35
2022-08-26T12:00:59.964Z,32.44
2022-08-26T12:03:44.778Z,33.17
2022-08-26T12:06:34.660Z,31.83
2022-08-26T12:09:28.650Z,32.16
2022-08-26T12:12:17.726Z,32.59
2022-08-26T12:15:20.602Z,32.37
2022-08-26T12:18:28.757Z,32.18
2022-08-26T12:21:22.491Z,32.20
2022-08-26T12:24:06.633Z,32.22
2022-08-26T12:26:48.734Z,32.71
2022-08-26T12:29:30.652Z,32.42
2022-08-26T12:32:18.370Z,32.19
2022-08-26T12:35:09.697Z,31.76
2022-08-26T12:37:55.159Z,32.03
2022-08-26T12:40:43.639Z,32.33
2022-08-26T12:43:46.218Z,32.58
2022-08-26T12:46:30.282Z,32.31
2022-08-26T12:49:12.336Z,31.91
2022-08-26T12:51:54.334Z,31.19
2022-08-26T12:54:56.816Z,32.01
2022-08-26T12:57:39.425Z,31.37
2022-08-26T13:00:37.145Z,32.01
2022-08-26T13:03:29.636Z,32.32
2022-08-26T13:06:31.668Z,32.60
2022-08-26T13:09:19.437Z,32.05
2022-08-26T13:12:02.126Z,31.94
2022-08-26T13:14:44.252Z,32.50
2022-08-26T13:17:30.967Z,31.51
2022-08-26T13:20:13.166Z,30.66
2022-08-26T13:22:59.095Z,31.18
2022-08-26T13:25:41.466Z,30.93
2022-08-26T13:28:23.357Z,31.31
2022-08-26T13:31:05.975Z,31.19
2022-08-26T13:33:48.787Z,30.34
2022-08-26T13:36:31.399Z,29.95
2022-08-26T13:39:13.400Z,29.77
2022-08-26T13:41:55.295Z,30.12
2022-08-26T13:44:39.546Z,30.64
2022-08-26T13:47:22.103Z,29.59
2022-08-26T13:50:05.589Z,30.17
2022-08-26T13:52:47.689Z,30.18
2022-08-26T13:55:29.687Z,30.60
2022-08-26T13:58:12.504Z,31.24
2022-08-26T14:00:56.714Z,31.79
2022-08-26T14:03:39.631Z,30.51
2022-08-26T14:06:21.777Z,29.28
2022-08-26T14:09:04.947Z,30.14
2022-08-26T14:11:53.915Z,30.97
2022-08-26T14:14:36.988Z,30.99
2022-08-26T14:17:22.774Z,31.04
2022-08-26T14:20:07.970Z,31.04
2022-08-26T14:23:12.569Z,30.98
2022-08-26T14:25:52.731Z,30.76
2022-08-26T14:28:35.752Z,31.35
2022-08-26T14:31:18.225Z,31.64
2022-08-26T14:34:03.951Z,31.67
2022-08-26T14:36:45.843Z,30.91
2022-08-26T14:39:27.786Z,31.29
2022-08-26T14:42:10.453Z,30.74
2022-08-26T14:44:56.647Z,30.73
2022-08-26T14:47:38.649Z,31.42
2022-08-26T14:50:26.321Z,30.85
2022-08-26T14:53:27.331Z,31.59
2022-08-26T14:56:13.693Z,32.53
2022-08-26T14:58:58.182Z,32.56
2022-08-26T15:01:40.187Z,32.08
2022-08-26T15:04:23.347Z,31.06
2022-08-26T15:07:05.609Z,30.75
2022-08-26T15:09:47.811Z,31.75
2022-08-26T15:12:32.372Z,31.19
2022-08-26T15:15:17.457Z,31.33
2022-08-26T15:17:59.378Z,32.19
2022-08-26T15:20:41.333Z,31.69
2022-08-26T15:23:23.638Z,30.50
2022-08-26T15:26:10.156Z,30.91
2022-08-26T15:28:52.550Z,31.58
2022-08-26T15:31:35.113Z,32.48
2022-08-26T15:34:17.469Z,31.57
2022-08-26T15:36:59.570Z,31.90
2022-08-26T15:39:43.615Z,32.35
2022-08-26T15:42:25.559Z,33.05
2022-08-26T15:45:07.975Z,32.90
2022-08-26T15:48:01.232Z,32.28
2022-08-26T15:50:58.234Z,32.09
2022-08-26T15:53:40.128Z,32.12
2022-08-26T15:56:28.962Z,32.71
2022-08-26T15:59:13.403Z,32.88
2022-08-26T16:01:57.426Z,33.05
2022-08-26T16:04:39.692Z,33.39
2022-08-26T16:07:21.689Z,33.31
2022-08-26T16:10:04.142Z,33.23
2022-08-26T16:12:47.016Z,34.07
2022-08-26T16:15:29.016Z,34.25
2022-08-26T16:18:11.424Z,34.71
2022-08-26T16:21:12.373Z,35.09
2022-08-26T16:23:57.866Z,35.20
2022-08-26T16:26:42.066Z,35.40
2022-08-26T16:29:24.810Z,35.68
2022-08-26T16:32:09.164Z,35.98
2022-08-26T16:34:56.575Z,36.46
2022-08-26T16:37:39.492Z,36.50
2022-08-26T16:40:22.409Z,36.72
2022-08-26T16:43:04.633Z,37.26
2022-08-26T16:45:46.530Z,37.59
2022-08-26T16:48:28.422Z,38.10
2022-08-26T16:51:16.248Z,38.14
2022-08-26T16:53:59.343Z,38.58
2022-08-26T16:56:41.279Z,38.57
2022-08-26T16:59:24.141Z,38.88
2022-08-26T17:02:06.431Z,39.23
2022-08-26T17:04:50.246Z,39.06
2022-08-26T17:07:32.651Z,39.60
2022-08-26T17:10:14.649Z,39.85
2022-08-26T17:12:57.158Z,40.34
2022-08-26T17:15:39.097Z,41.11
2022-08-26T17:18:27.543Z,41.07
2022-08-26T17:21:12.656Z,40.80
2022-08-26T17:23:55.394Z,41.20
2022-08-26T17:26:38.211Z,41.76
2022-08-26T17:29:20.718Z,42.07
2022-08-26T17:32:03.596Z,42.18
2022-08-26T17:34:45.534Z,42.17
2022-08-26T17:37:28.613Z,42.41
2022-08-26T17:40:16.273Z,42.24
2022-08-26T17:42:59.516Z,42.48
2022-08-26T17:45:42.757Z,42.45
2022-08-26T17:48:24.946Z,42.80
2022-08-26T17:51:13.587Z,42.99
2022-08-26T17:53:56.110Z,43.74
2022-08-26T17:56:38.723Z,44.03
2022-08-26T17:59:20.619Z,44.14
2022-08-26T18:02:04.304Z,44.08
2022-08-26T18:04:48.067Z,43.45
2022-08-26T18:07:31.938Z,43.32
2022-08-26T18:10:21.568Z,43.16
2022-08-26T18:13:03.616Z,43.13
2022-08-26T18:15:47.107Z,43.17
2022-08-26T18:18:29.045Z,43.17
2022-08-26T18:21:16.608Z,43.25
2022-08-26T18:23:58.775Z,43.20
2022-08-26T18:26:48.236Z,43.15
2022-08-26T18:29:30.297Z,43.07
2022-08-26T18:32:12.079Z,43.11
2022-08-26T18:34:53.983Z,43.40
2022-08-26T18:37:35.934Z,43.60
2022-08-26T18:40:17.882Z,43.67
2022-08-26T18:43:00.958Z,43.86
2022-08-26T18:45:44.735Z,44.01
2022-08-26T18:48:27.000Z,44.23
2022-08-26T18:51:15.243Z,44.40
2022-08-26T18:53:57.963Z,44.69
2022-08-26T18:56:40.883Z,45.21
2022-08-26T18:59:28.389Z,45.30
2022-08-26T19:02:12.968Z,45.52
2022-08-26T19:04:55.066Z,45.73
2022-08-26T19:07:39.616Z,45.92
2022-08-26T19:10:28.380Z,46.23
2022-08-26T19:13:10.457Z,46.35
2022-08-26T19:15:52.699Z,46.62
2022-08-26T19:18:45.251Z,46.98
2022-08-26T19:21:39.489Z,47.06
2022-08-26T19:24:27.302Z,47.33
2022-08-26T19:27:16.823Z,47.58
2022-08-26T19:30:00.357Z,47.62
2022-08-26T19:32:42.355Z,47.81
2022-08-26T19:35:24.252Z,48.07
2022-08-26T19:38:07.990Z,48.20
2022-08-26T19:40:49.989Z,48.46
2022-08-26T19:43:32.805Z,48.61
2022-08-26T19:46:18.688Z,48.76
2022-08-26T19:49:04.615Z,48.93
2022-08-26T19:51:48.324Z,49.14
2022-08-26T19:54:30.835Z,49.49
2022-08-26T19:57:12.934Z,49.67
2022-08-26T19:59:55.240Z,49.96
2022-08-26T20:02:37.900Z,50.14
2022-08-26T20:05:23.003Z,50.62
2022-08-26T20:08:05.516Z,50.80
2022-08-26T20:10:49.219Z,51.00
2022-08-26T20:13:32.050Z,51.10
2022-08-26T20:16:15.336Z,51.31
2022-08-26T20:19:17.591Z,51.42
2022-08-26T20:22:00.204Z,51.66
2022-08-26T20:24:42.201Z,51.54
2022-08-26T20:27:38.142Z,51.81
2022-08-26T20:30:22.484Z,52.38
2022-08-26T20:33:04.584Z,52.27
2022-08-26T20:35:47.140Z,52.49
2022-08-26T20:38:29.089Z,52.83
2022-08-26T20:41:11.983Z,53.03
2022-08-26T20:43:55.544Z,53.15
2022-08-26T20:46:37.974Z,53.25
2022-08-26T20:49:19.994Z,53.46
2022-08-26T20:52:03.559Z,53.57
2022-08-26T20:54:45.457Z,53.61
2022-08-26T20:57:27.322Z,54.05
2022-08-26T21:00:12.343Z,54.17
2022-08-26T21:02:56.904Z,54.18
2022-08-26T21:05:38.799Z,54.37
2022-08-26T21:08:21.513Z,54.66
2022-08-26T21:11:03.901Z,54.64
2022-08-26T21:14:04.516Z,54.77
2022-08-26T21:16:51.545Z,54.87
2022-08-26T21:19:34.287Z,54.92
2022-08-26T21:22:16.421Z,55.00
2022-08-26T21:24:58.693Z,55.12
2022-08-26T21:27:40.588Z,55.19
2022-08-26T21:30:23.202Z,55.22
2022-08-26T21:33:05.301Z,55.23
2022-08-26T21:35:54.452Z,55.28
2022-08-26T21:38:37.216Z,55.16
2022-08-26T21:41:22.231Z,55.12
2022-08-26T21:44:04.457Z,55.32
2022-08-26T21:46:47.124Z,55.28
2022-08-26T21:49:29.068Z,55.38
2022-08-26T21:52:12.977Z,55.25
2022-08-26T21:55:00.025Z,55.27
2022-08-26T21:57:42.129Z,55.37
2022-08-26T22:00:24.536Z,55.49
2022-08-26T22:03:06.377Z,55.58
2022-08-26T22:05:52.388Z,55.68
2022-08-26T22:08:34.878Z,55.89
2022-08-26T22:11:18.864Z,56.17
2022-08-26T22:14:00.779Z,56.18
2022-08-26T22:16:44.468Z,56.38
2022-08-26T22:19:34.063Z,56.41
2022-08-26T22:22:23.354Z,56.63
2022-08-26T22:25:05.753Z,56.81
2022-08-26T22:27:47.614Z,56.94
2022-08-26T22:30:29.496Z,57.10
2022-08-26T22:33:11.428Z,57.27
2022-08-26T22:35:53.296Z,57.57
2022-08-26T22:38:35.109Z,57.44
2022-08-26T22:41:18.398Z,57.59
2022-08-26T22:44:02.793Z,57.66
2022-08-26T22:46:46.458Z,57.77
2022-08-26T22:49:28.778Z,57.73
2022-08-26T22:52:10.706Z,57.66
2022-08-26T22:54:53.476Z,57.91
2022-08-26T22:57:35.372Z,57.91
2022-08-26T23:00:17.372Z,57.83
2022-08-26T23:03:00.544Z,57.92
2022-08-26T23:05:44.234Z,57.94
2022-08-26T23:08:27.872Z,58.11
2022-08-26T23:11:11.863Z,58.01
2022-08-26T23:13:53.709Z,58.33
2022-08-26T23:16:39.358Z,58.49
2022-08-26T23:19:22.826Z,58.78
2022-08-26T23:22:04.824Z,58.93
2022-08-26T23:24:46.724Z,58.98
2022-08-26T23:27:29.596Z,59.33
2022-08-26T23:30:16.212Z,59.45
2022-08-26T23:32:58.490Z,59.58
2022-08-26T23:35:40.756Z,59.86
2022-08-26T23:38:23.166Z,59.78
2022-08-26T23:41:05.160Z,59.89
2022-08-26T23:43:47.933Z,60.25
2022-08-26T23:46:29.875Z,60.34
2022-08-26T23:49:11.974Z,60.55
2022-08-26T23:52:13.376Z,60.74
2022-08-26T23:54:55.733Z,61.15
2022-08-26T23:57:38.246Z,61.55
